Chicago O'Hare, IL

1:21 PM CDT on September 01, 2015 (GMT -0500)
Chicago-O'Hare International | | Change Station
CLOSE
Current Station
Airport
Location: Chicago,
Elevation: 673 ft
Nearby Weather Stations

Elev 673 ft 41.99 °N, 87.93 °W | Updated 30 minutes ago

Clear
Clear
87 °F
Feels Like 94 °F
N
12
Wind Variable Wind from SSW
Gusts 17 mph

Today
High -- | Low -- °F
--% Chance of Precip.
Yesterday
High -- | Low -- °F
Precip. -- in
6:16 AM 7:25 PM
Waning Gibbous, 87% visible
Pressure 30.01 in
Visibility 10.0 miles
Clouds Scattered Clouds 3400 ft
Scattered Clouds 8500 ft
Heat Index 94 °F
Dew Point 72 °F
Humidity 61%
Rainfall 0.00 in
Snow Depth Not available.
UV 7 out of 12
Pollen 11.00 out of 12
Air Quality Not available.
Flu Activity Not available.
METAR KORD 011751Z 20010G15KT 10SM SCT034 SCT085 31/22 A3003 RMK AO2 SLP163 T03060222 10306 20217 58008
Pressure 30.01 in
Visibility 10.0 miles
Clouds Scattered Clouds 3400 ft
Scattered Clouds 8500 ft
Heat Index 94 °F
Dew Point 72 °F
Humidity 61%
Rainfall 0.00 in
Snow Depth Not available.
UV 7 out of 12
Pollen 11.00 out of 12
Air Quality Not available.
Flu Activity Not available.
METAR KORD 011751Z 20010G15KT 10SM SCT034 SCT085 31/22 A3003 RMK AO2 SLP163 T03060222 10306 20217 58008

10-Day Weather Forecast

×

Almanac

Astronomy

Sep. 01, 2015 Rise Set
Actual Time
Civil Twilight
Nautical Twilight
Astronomical Twilight
Moon
Length of Visible Light
Length of Day
Tomorrow will be .
, % of the Moon is Illuminated

Today's Extremes

State Highs State Lows

Community

WunderPhotos

Upload Photos

1,851,592 photos uploaded!

WunderBlogs® & News

Nearby

Air Quality

  Air Quality AQ Index Pollutant
Not available.

Snow Depth

Station Depth Elevation

Earthquake Activity

City Distance Mag. Time & Date
Minimum magnitude displayed is 2.5.

Coastal Water Temperatures

Place Temperature

Stations

Nearby Weather Stations

Station Location Temp. Windchill Dew Point Humidity Wind Precip. Elev Updated Type